sensor_id;sensor_type;location;lat;lon;timestamp;P1;durP1;ratioP1;P2;durP2;ratioP2
75454;SDS011;64035;48.358;2.122;2022-10-17T00:00:42;4.97;;;1.98;;
75454;SDS011;64035;48.358;2.122;2022-10-17T00:01:43;5.07;;;1.90;;
75454;SDS011;64035;48.358;2.122;2022-10-17T00:02:43;5.78;;;2.15;;
75454;SDS011;64035;48.358;2.122;2022-10-17T00:03:44;6.10;;;2.33;;
75454;SDS011;64035;48.358;2.122;2022-10-17T00:04:44;5.60;;;2.10;;
75454;SDS011;64035;48.358;2.122;2022-10-17T00:05:45;5.63;;;2.20;;
75454;SDS011;64035;48.358;2.122;2022-10-17T00:06:46;5.88;;;1.95;;
75454;SDS011;64035;48.358;2.122;2022-10-17T00:07:47;5.47;;;2.22;;
75454;SDS011;64035;48.358;2.122;2022-10-17T00:08:47;6.38;;;2.20;;
75454;SDS011;64035;48.358;2.122;2022-10-17T00:09:47;5.28;;;2.13;;
75454;SDS011;64035;48.358;2.122;2022-10-17T00:10:55;5.70;;;2.00;;
75454;SDS011;64035;48.358;2.122;2022-10-17T00:11:57;6.55;;;2.40;;
75454;SDS011;64035;48.358;2.122;2022-10-17T00:12:57;5.10;;;1.95;;
75454;SDS011;64035;48.358;2.122;2022-10-17T00:13:58;5.35;;;2.17;;
75454;SDS011;64035;48.358;2.122;2022-10-17T00:14:58;6.28;;;2.03;;
75454;SDS011;64035;48.358;2.122;2022-10-17T00:15:59;5.45;;;2.10;;
75454;SDS011;64035;48.358;2.122;2022-10-17T00:17:00;5.85;;;1.98;;
75454;SDS011;64035;48.358;2.122;2022-10-17T00:18:00;5.75;;;2.28;;
75454;SDS011;64035;48.358;2.122;2022-10-17T00:19:01;5.90;;;2.20;;
75454;SDS011;64035;48.358;2.122;2022-10-17T00:20:03;5.60;;;2.13;;
75454;SDS011;64035;48.358;2.122;2022-10-17T00:21:04;5.25;;;2.10;;
75454;SDS011;64035;48.358;2.122;2022-10-17T00:22:04;6.53;;;2.17;;
75454;SDS011;64035;48.358;2.122;2022-10-17T00:23:05;7.18;;;2.03;;
75454;SDS011;64035;48.358;2.122;2022-10-17T00:24:05;5.78;;;1.90;;
75454;SDS011;64035;48.358;2.122;2022-10-17T00:25:05;7.03;;;2.08;;
75454;SDS011;64035;48.358;2.122;2022-10-17T00:26:06;5.88;;;2.00;;
75454;SDS011;64035;48.358;2.122;2022-10-17T00:27:07;5.88;;;2.20;;
75454;SDS011;64035;48.358;2.122;2022-10-17T00:28:08;4.55;;;2.00;;
75454;SDS011;64035;48.358;2.122;2022-10-17T00:29:09;6.47;;;2.05;;
75454;SDS011;64035;48.358;2.122;2022-10-17T00:30:11;7.10;;;1.95;;
75454;SDS011;64035;48.358;2.122;2022-10-17T00:31:12;4.68;;;1.90;;
75454;SDS011;64035;48.358;2.122;2022-10-17T00:32:15;5.50;;;1.95;;
75454;SDS011;64035;48.358;2.122;2022-10-17T00:33:16;4.90;;;2.10;;
75454;SDS011;64035;48.358;2.122;2022-10-17T00:34:17;5.43;;;1.88;;
75454;SDS011;64035;48.358;2.122;2022-10-17T00:35:20;5.45;;;2.35;;
75454;SDS011;64035;48.358;2.122;2022-10-17T00:36:22;5.70;;;2.03;;
75454;SDS011;64035;48.358;2.122;2022-10-17T00:37:24;4.93;;;1.95;;
75454;SDS011;64035;48.358;2.122;2022-10-17T00:38:24;6.47;;;1.98;;
75454;SDS011;64035;48.358;2.122;2022-10-17T00:39:25;5.28;;;1.95;;
75454;SDS011;64035;48.358;2.122;2022-10-17T00:40:25;5.70;;;2.22;;
75454;SDS011;64035;48.358;2.122;2022-10-17T00:41:27;5.38;;;2.03;;
75454;SDS011;64035;48.358;2.122;2022-10-17T00:42:29;4.95;;;2.10;;
75454;SDS011;64035;48.358;2.122;2022-10-17T00:43:47;7.25;;;2.05;;
75454;SDS011;64035;48.358;2.122;2022-10-17T00:45:49;6.05;;;2.20;;
75454;SDS011;64035;48.358;2.122;2022-10-17T00:46:49;5.22;;;2.15;;
75454;SDS011;64035;48.358;2.122;2022-10-17T00:47:51;5.88;;;2.17;;
75454;SDS011;64035;48.358;2.122;2022-10-17T00:48:55;5.75;;;1.90;;
75454;SDS011;64035;48.358;2.122;2022-10-17T00:49:57;6.00;;;2.17;;
75454;SDS011;64035;48.358;2.122;2022-10-17T00:50:58;5.15;;;2.40;;
75454;SDS011;64035;48.358;2.122;2022-10-17T00:52:00;4.80;;;2.00;;
75454;SDS011;64035;48.358;2.122;2022-10-17T00:53:03;6.25;;;2.30;;
75454;SDS011;64035;48.358;2.122;2022-10-17T00:54:06;5.97;;;2.10;;
75454;SDS011;64035;48.358;2.122;2022-10-17T00:55:13;5.20;;;2.00;;
75454;SDS011;64035;48.358;2.122;2022-10-17T00:56:19;3.83;;;1.80;;
75454;SDS011;64035;48.358;2.122;2022-10-17T00:57:20;6.05;;;2.05;;
75454;SDS011;64035;48.358;2.122;2022-10-17T00:58:23;4.60;;;2.03;;
75454;SDS011;64035;48.358;2.122;2022-10-17T00:59:24;5.75;;;2.08;;
75454;SDS011;64035;48.358;2.122;2022-10-17T01:00:25;4.43;;;2.00;;
75454;SDS011;64035;48.358;2.122;2022-10-17T01:01:25;5.07;;;1.98;;
75454;SDS011;64035;48.358;2.122;2022-10-17T01:02:26;5.05;;;2.05;;
75454;SDS011;64035;48.358;2.122;2022-10-17T01:03:26;4.85;;;2.00;;
75454;SDS011;64035;48.358;2.122;2022-10-17T01:04:27;5.82;;;2.13;;
75454;SDS011;64035;48.358;2.122;2022-10-17T01:05:27;5.15;;;2.15;;
75454;SDS011;64035;48.358;2.122;2022-10-17T01:06:28;5.35;;;2.03;;
75454;SDS011;64035;48.358;2.122;2022-10-17T01:07:28;5.35;;;2.20;;
75454;SDS011;64035;48.358;2.122;2022-10-17T01:08:29;4.88;;;2.13;;
75454;SDS011;64035;48.358;2.122;2022-10-17T01:09:30;6.38;;;2.30;;
75454;SDS011;64035;48.358;2.122;2022-10-17T01:13:18;4.57;;;1.77;;
75454;SDS011;64035;48.358;2.122;2022-10-17T01:16:04;5.28;;;1.90;;
75454;SDS011;64035;48.358;2.122;2022-10-17T01:18:31;5.45;;;2.10;;
75454;SDS011;64035;48.358;2.122;2022-10-17T01:22:26;5.03;;;1.80;;
75454;SDS011;64035;48.358;2.122;2022-10-17T01:26:32;5.55;;;1.98;;
75454;SDS011;64035;48.358;2.122;2022-10-17T01:32:01;6.20;;;2.42;;
75454;SDS011;64035;48.358;2.122;2022-10-17T01:33:10;5.20;;;2.08;;
75454;SDS011;64035;48.358;2.122;2022-10-17T01:34:15;9.18;;;2.30;;
75454;SDS011;64035;48.358;2.122;2022-10-17T01:35:22;6.63;;;2.20;;
75454;SDS011;64035;48.358;2.122;2022-10-17T01:37:49;5.03;;;1.80;;
75454;SDS011;64035;48.358;2.122;2022-10-17T01:39:01;4.90;;;1.75;;
75454;SDS011;64035;48.358;2.122;2022-10-17T01:40:09;5.90;;;1.85;;
75454;SDS011;64035;48.358;2.122;2022-10-17T01:41:27;6.57;;;2.08;;
75454;SDS011;64035;48.358;2.122;2022-10-17T01:42:43;7.03;;;2.00;;
75454;SDS011;64035;48.358;2.122;2022-10-17T01:44:02;4.57;;;1.70;;
75454;SDS011;64035;48.358;2.122;2022-10-17T01:45:09;5.38;;;2.13;;
75454;SDS011;64035;48.358;2.122;2022-10-17T01:46:17;6.25;;;2.10;;
75454;SDS011;64035;48.358;2.122;2022-10-17T01:47:29;4.47;;;1.95;;
75454;SDS011;64035;48.358;2.122;2022-10-17T01:48:33;4.88;;;1.75;;
75454;SDS011;64035;48.358;2.122;2022-10-17T01:49:36;6.90;;;1.95;;
75454;SDS011;64035;48.358;2.122;2022-10-17T01:50:44;5.80;;;2.28;;
75454;SDS011;64035;48.358;2.122;2022-10-17T01:51:55;9.50;;;2.33;;
75454;SDS011;64035;48.358;2.122;2022-10-17T01:53:01;7.63;;;2.58;;
75454;SDS011;64035;48.358;2.122;2022-10-17T01:54:10;5.53;;;1.70;;
75454;SDS011;64035;48.358;2.122;2022-10-17T01:55:18;5.15;;;2.05;;
75454;SDS011;64035;48.358;2.122;2022-10-17T01:56:26;6.75;;;2.20;;
75454;SDS011;64035;48.358;2.122;2022-10-17T01:57:33;6.55;;;2.03;;
75454;SDS011;64035;48.358;2.122;2022-10-17T01:58:45;5.55;;;2.03;;
75454;SDS011;64035;48.358;2.122;2022-10-17T01:59:50;6.90;;;1.92;;
75454;SDS011;64035;48.358;2.122;2022-10-17T02:00:52;4.88;;;2.08;;
75454;SDS011;64035;48.358;2.122;2022-10-17T02:01:54;5.88;;;1.95;;
75454;SDS011;64035;48.358;2.122;2022-10-17T02:02:57;6.15;;;2.30;;
75454;SDS011;64035;48.358;2.122;2022-10-17T02:04:01;6.28;;;2.08;;
75454;SDS011;64035;48.358;2.122;2022-10-17T02:05:04;5.90;;;2.20;;
75454;SDS011;64035;48.358;2.122;2022-10-17T02:06:05;5.97;;;1.80;;
75454;SDS011;64035;48.358;2.122;2022-10-17T02:07:07;5.20;;;2.03;;
75454;SDS011;64035;48.358;2.122;2022-10-17T02:08:09;6.93;;;2.17;;
75454;SDS011;64035;48.358;2.122;2022-10-17T02:09:14;5.80;;;2.00;;
75454;SDS011;64035;48.358;2.122;2022-10-17T02:10:45;5.15;;;1.70;;
75454;SDS011;64035;48.358;2.122;2022-10-17T02:12:02;5.03;;;1.90;;
75454;SDS011;64035;48.358;2.122;2022-10-17T02:17:56;6.78;;;1.92;;
75454;SDS011;64035;48.358;2.122;2022-10-17T02:20:30;4.22;;;1.90;;
75454;SDS011;64035;48.358;2.122;2022-10-17T02:25:25;5.07;;;1.85;;
75454;SDS011;64035;48.358;2.122;2022-10-17T02:26:40;5.13;;;2.10;;
75454;SDS011;64035;48.358;2.122;2022-10-17T02:27:54;6.75;;;2.10;;
75454;SDS011;64035;48.358;2.122;2022-10-17T02:29:06;5.50;;;2.20;;
75454;SDS011;64035;48.358;2.122;2022-10-17T02:30:14;3.75;;;1.73;;
75454;SDS011;64035;48.358;2.122;2022-10-17T02:31:32;6.03;;;1.90;;
75454;SDS011;64035;48.358;2.122;2022-10-17T02:33:46;5.53;;;2.00;;
75454;SDS011;64035;48.358;2.122;2022-10-17T02:34:53;7.80;;;2.45;;
75454;SDS011;64035;48.358;2.122;2022-10-17T02:35:57;5.03;;;1.92;;
75454;SDS011;64035;48.358;2.122;2022-10-17T02:37:04;5.90;;;2.10;;
75454;SDS011;64035;48.358;2.122;2022-10-17T02:38:06;4.82;;;2.05;;
75454;SDS011;64035;48.358;2.122;2022-10-17T02:39:10;8.05;;;2.33;;
75454;SDS011;64035;48.358;2.122;2022-10-17T02:40:12;7.43;;;2.40;;
75454;SDS011;64035;48.358;2.122;2022-10-17T02:41:14;8.50;;;2.70;;
75454;SDS011;64035;48.358;2.122;2022-10-17T02:42:16;5.38;;;2.17;;
75454;SDS011;64035;48.358;2.122;2022-10-17T02:44:21;4.75;;;2.05;;
75454;SDS011;64035;48.358;2.122;2022-10-17T02:45:23;5.13;;;2.20;;
75454;SDS011;64035;48.358;2.122;2022-10-17T02:46:27;4.82;;;2.10;;
75454;SDS011;64035;48.358;2.122;2022-10-17T02:47:36;5.57;;;2.00;;
75454;SDS011;64035;48.358;2.122;2022-10-17T02:48:48;7.60;;;2.47;;
75454;SDS011;64035;48.358;2.122;2022-10-17T02:49:54;5.85;;;2.15;;
75454;SDS011;64035;48.358;2.122;2022-10-17T02:51:02;5.13;;;2.38;;
75454;SDS011;64035;48.358;2.122;2022-10-17T02:52:07;6.55;;;2.30;;
75454;SDS011;64035;48.358;2.122;2022-10-17T02:53:13;6.13;;;2.30;;
75454;SDS011;64035;48.358;2.122;2022-10-17T02:54:20;6.78;;;2.33;;
75454;SDS011;64035;48.358;2.122;2022-10-17T02:55:29;4.35;;;1.80;;
75454;SDS011;64035;48.358;2.122;2022-10-17T02:56:33;5.15;;;2.03;;
75454;SDS011;64035;48.358;2.122;2022-10-17T02:57:59;5.32;;;2.05;;
75454;SDS011;64035;48.358;2.122;2022-10-17T02:59:05;5.85;;;2.08;;
75454;SDS011;64035;48.358;2.122;2022-10-17T03:00:10;6.63;;;1.88;;
75454;SDS011;64035;48.358;2.122;2022-10-17T03:01:12;6.22;;;2.13;;
75454;SDS011;64035;48.358;2.122;2022-10-17T03:02:13;6.55;;;2.10;;
75454;SDS011;64035;48.358;2.122;2022-10-17T03:04:19;5.03;;;1.88;;
75454;SDS011;64035;48.358;2.122;2022-10-17T03:05:21;4.68;;;1.80;;
75454;SDS011;64035;48.358;2.122;2022-10-17T03:06:23;6.47;;;2.20;;
75454;SDS011;64035;48.358;2.122;2022-10-17T03:07:24;6.57;;;2.08;;
75454;SDS011;64035;48.358;2.122;2022-10-17T03:08:24;6.10;;;2.40;;
75454;SDS011;64035;48.358;2.122;2022-10-17T03:09:24;6.82;;;2.00;;
75454;SDS011;64035;48.358;2.122;2022-10-17T03:10:25;4.32;;;1.73;;
75454;SDS011;64035;48.358;2.122;2022-10-17T03:11:25;6.90;;;2.22;;
75454;SDS011;64035;48.358;2.122;2022-10-17T03:12:26;4.85;;;1.90;;
75454;SDS011;64035;48.358;2.122;2022-10-17T03:13:27;6.78;;;2.17;;
75454;SDS011;64035;48.358;2.122;2022-10-17T03:14:28;6.90;;;2.15;;
75454;SDS011;64035;48.358;2.122;2022-10-17T03:15:29;5.68;;;2.88;;
75454;SDS011;64035;48.358;2.122;2022-10-17T03:16:29;5.78;;;2.15;;
75454;SDS011;64035;48.358;2.122;2022-10-17T03:17:30;5.60;;;2.40;;
75454;SDS011;64035;48.358;2.122;2022-10-17T03:18:30;6.00;;;2.20;;
75454;SDS011;64035;48.358;2.122;2022-10-17T03:19:31;5.50;;;2.50;;
75454;SDS011;64035;48.358;2.122;2022-10-17T03:20:31;5.90;;;2.20;;
75454;SDS011;64035;48.358;2.122;2022-10-17T03:21:32;4.75;;;2.20;;
75454;SDS011;64035;48.358;2.122;2022-10-17T03:22:32;4.80;;;1.95;;
75454;SDS011;64035;48.358;2.122;2022-10-17T03:23:33;7.50;;;2.33;;
75454;SDS011;64035;48.358;2.122;2022-10-17T03:24:33;6.97;;;2.10;;
75454;SDS011;64035;48.358;2.122;2022-10-17T03:25:34;8.20;;;2.15;;
75454;SDS011;64035;48.358;2.122;2022-10-17T03:26:34;6.63;;;2.40;;
75454;SDS011;64035;48.358;2.122;2022-10-17T03:27:35;5.40;;;2.00;;
75454;SDS011;64035;48.358;2.122;2022-10-17T03:28:35;5.70;;;2.10;;
75454;SDS011;64035;48.358;2.122;2022-10-17T03:29:36;6.10;;;2.10;;
75454;SDS011;64035;48.358;2.122;2022-10-17T03:30:37;5.78;;;2.10;;
75454;SDS011;64035;48.358;2.122;2022-10-17T03:31:37;5.80;;;2.30;;
75454;SDS011;64035;48.358;2.122;2022-10-17T03:32:38;5.38;;;2.20;;
75454;SDS011;64035;48.358;2.122;2022-10-17T03:33:38;4.90;;;1.92;;
75454;SDS011;64035;48.358;2.122;2022-10-17T03:34:38;6.78;;;2.05;;
75454;SDS011;64035;48.358;2.122;2022-10-17T03:35:39;5.85;;;2.05;;
75454;SDS011;64035;48.358;2.122;2022-10-17T03:36:39;5.47;;;1.85;;
75454;SDS011;64035;48.358;2.122;2022-10-17T03:37:40;6.38;;;2.15;;
75454;SDS011;64035;48.358;2.122;2022-10-17T03:38:41;7.53;;;2.10;;
75454;SDS011;64035;48.358;2.122;2022-10-17T03:39:43;5.38;;;1.92;;
75454;SDS011;64035;48.358;2.122;2022-10-17T03:40:43;4.45;;;1.90;;
75454;SDS011;64035;48.358;2.122;2022-10-17T03:41:43;6.10;;;2.05;;
75454;SDS011;64035;48.358;2.122;2022-10-17T03:42:44;4.72;;;2.03;;
75454;SDS011;64035;48.358;2.122;2022-10-17T03:43:44;5.63;;;2.40;;
75454;SDS011;64035;48.358;2.122;2022-10-17T03:44:44;5.05;;;2.00;;
75454;SDS011;64035;48.358;2.122;2022-10-17T03:45:45;6.30;;;2.30;;
75454;SDS011;64035;48.358;2.122;2022-10-17T03:46:45;4.90;;;1.90;;
75454;SDS011;64035;48.358;2.122;2022-10-17T03:47:45;6.50;;;2.08;;
75454;SDS011;64035;48.358;2.122;2022-10-17T03:48:46;4.28;;;1.80;;
75454;SDS011;64035;48.358;2.122;2022-10-17T03:49:46;6.68;;;2.17;;
75454;SDS011;64035;48.358;2.122;2022-10-17T03:50:47;7.75;;;2.08;;
75454;SDS011;64035;48.358;2.122;2022-10-17T03:51:47;5.85;;;1.88;;
75454;SDS011;64035;48.358;2.122;2022-10-17T03:52:47;5.57;;;2.17;;
75454;SDS011;64035;48.358;2.122;2022-10-17T03:53:48;5.43;;;2.08;;
75454;SDS011;64035;48.358;2.122;2022-10-17T03:54:49;7.18;;;2.30;;
75454;SDS011;64035;48.358;2.122;2022-10-17T03:55:50;5.07;;;2.22;;
75454;SDS011;64035;48.358;2.122;2022-10-17T03:56:50;6.35;;;1.80;;
75454;SDS011;64035;48.358;2.122;2022-10-17T03:57:51;7.15;;;2.10;;
75454;SDS011;64035;48.358;2.122;2022-10-17T03:58:51;6.38;;;2.00;;
75454;SDS011;64035;48.358;2.122;2022-10-17T03:59:51;4.80;;;1.88;;
75454;SDS011;64035;48.358;2.122;2022-10-17T04:00:52;5.88;;;1.83;;
75454;SDS011;64035;48.358;2.122;2022-10-17T04:01:52;5.82;;;1.90;;
75454;SDS011;64035;48.358;2.122;2022-10-17T04:02:53;3.55;;;1.67;;
75454;SDS011;64035;48.358;2.122;2022-10-17T04:03:54;4.82;;;1.85;;
75454;SDS011;64035;48.358;2.122;2022-10-17T04:04:55;4.85;;;1.90;;
75454;SDS011;64035;48.358;2.122;2022-10-17T04:05:59;6.07;;;2.38;;
75454;SDS011;64035;48.358;2.122;2022-10-17T04:07:00;4.85;;;1.95;;
75454;SDS011;64035;48.358;2.122;2022-10-17T04:08:00;4.88;;;1.98;;
75454;SDS011;64035;48.358;2.122;2022-10-17T04:09:01;5.70;;;1.90;;
75454;SDS011;64035;48.358;2.122;2022-10-17T04:10:02;4.25;;;1.88;;
75454;SDS011;64035;48.358;2.122;2022-10-17T04:11:05;5.47;;;2.38;;
75454;SDS011;64035;48.358;2.122;2022-10-17T04:12:07;5.38;;;1.80;;
75454;SDS011;64035;48.358;2.122;2022-10-17T04:13:07;3.78;;;1.50;;
75454;SDS011;64035;48.358;2.122;2022-10-17T04:14:08;5.43;;;2.13;;
75454;SDS011;64035;48.358;2.122;2022-10-17T04:15:09;5.97;;;1.90;;
75454;SDS011;64035;48.358;2.122;2022-10-17T04:16:10;5.05;;;2.03;;
75454;SDS011;64035;48.358;2.122;2022-10-17T04:17:12;6.43;;;2.10;;
75454;SDS011;64035;48.358;2.122;2022-10-17T04:18:13;5.22;;;2.20;;
75454;SDS011;64035;48.358;2.122;2022-10-17T04:19:13;6.05;;;2.13;;
75454;SDS011;64035;48.358;2.122;2022-10-17T04:20:13;4.93;;;1.75;;
75454;SDS011;64035;48.358;2.122;2022-10-17T04:21:14;6.07;;;2.08;;
75454;SDS011;64035;48.358;2.122;2022-10-17T04:22:15;7.18;;;2.22;;
75454;SDS011;64035;48.358;2.122;2022-10-17T04:23:15;4.35;;;1.92;;
75454;SDS011;64035;48.358;2.122;2022-10-17T04:24:16;6.25;;;1.98;;
75454;SDS011;64035;48.358;2.122;2022-10-17T04:25:17;6.35;;;2.20;;
75454;SDS011;64035;48.358;2.122;2022-10-17T04:26:17;6.22;;;1.92;;
75454;SDS011;64035;48.358;2.122;2022-10-17T04:27:17;6.50;;;2.17;;
75454;SDS011;64035;48.358;2.122;2022-10-17T04:28:18;6.05;;;2.00;;
75454;SDS011;64035;48.358;2.122;2022-10-17T04:29:18;6.40;;;2.10;;
75454;SDS011;64035;48.358;2.122;2022-10-17T04:30:19;5.28;;;1.73;;
75454;SDS011;64035;48.358;2.122;2022-10-17T04:31:19;4.53;;;2.10;;
75454;SDS011;64035;48.358;2.122;2022-10-17T04:32:19;4.72;;;2.05;;
75454;SDS011;64035;48.358;2.122;2022-10-17T04:33:23;5.30;;;2.00;;
75454;SDS011;64035;48.358;2.122;2022-10-17T04:34:24;6.00;;;2.03;;
75454;SDS011;64035;48.358;2.122;2022-10-17T04:35:24;4.95;;;1.70;;
75454;SDS011;64035;48.358;2.122;2022-10-17T04:36:25;6.25;;;2.30;;
75454;SDS011;64035;48.358;2.122;2022-10-17T04:37:25;4.85;;;2.05;;
75454;SDS011;64035;48.358;2.122;2022-10-17T04:38:28;5.18;;;2.20;;
75454;SDS011;64035;48.358;2.122;2022-10-17T04:39:29;4.97;;;2.03;;
75454;SDS011;64035;48.358;2.122;2022-10-17T04:40:29;5.32;;;2.08;;
75454;SDS011;64035;48.358;2.122;2022-10-17T04:41:30;4.38;;;1.70;;
75454;SDS011;64035;48.358;2.122;2022-10-17T04:42:30;4.85;;;2.20;;
75454;SDS011;64035;48.358;2.122;2022-10-17T04:43:31;5.47;;;2.00;;
75454;SDS011;64035;48.358;2.122;2022-10-17T04:44:33;3.83;;;1.77;;
75454;SDS011;64035;48.358;2.122;2022-10-17T04:45:34;5.20;;;2.03;;
75454;SDS011;64035;48.358;2.122;2022-10-17T04:46:35;5.93;;;2.05;;
75454;SDS011;64035;48.358;2.122;2022-10-17T04:47:35;5.03;;;2.15;;
75454;SDS011;64035;48.358;2.122;2022-10-17T04:48:35;5.13;;;1.90;;
75454;SDS011;64035;48.358;2.122;2022-10-17T04:49:36;4.68;;;1.73;;
75454;SDS011;64035;48.358;2.122;2022-10-17T04:50:37;6.18;;;2.03;;
75454;SDS011;64035;48.358;2.122;2022-10-17T04:51:37;7.47;;;1.92;;
75454;SDS011;64035;48.358;2.122;2022-10-17T04:52:38;5.32;;;2.25;;
75454;SDS011;64035;48.358;2.122;2022-10-17T04:53:38;6.15;;;2.08;;
75454;SDS011;64035;48.358;2.122;2022-10-17T04:54:39;6.63;;;1.80;;
75454;SDS011;64035;48.358;2.122;2022-10-17T04:55:40;5.93;;;1.95;;
75454;SDS011;64035;48.358;2.122;2022-10-17T04:56:40;4.95;;;1.80;;
75454;SDS011;64035;48.358;2.122;2022-10-17T04:57:40;5.75;;;2.08;;
75454;SDS011;64035;48.358;2.122;2022-10-17T04:58:41;6.80;;;2.13;;
75454;SDS011;64035;48.358;2.122;2022-10-17T04:59:42;4.03;;;1.80;;
75454;SDS011;64035;48.358;2.122;2022-10-17T05:00:43;5.57;;;1.95;;
75454;SDS011;64035;48.358;2.122;2022-10-17T05:01:43;5.25;;;2.00;;
75454;SDS011;64035;48.358;2.122;2022-10-17T05:02:44;5.72;;;2.13;;
75454;SDS011;64035;48.358;2.122;2022-10-17T05:03:44;6.65;;;2.15;;
75454;SDS011;64035;48.358;2.122;2022-10-17T05:04:45;5.35;;;1.90;;
75454;SDS011;64035;48.358;2.122;2022-10-17T05:05:46;5.65;;;2.28;;
75454;SDS011;64035;48.358;2.122;2022-10-17T05:06:48;7.07;;;2.30;;
75454;SDS011;64035;48.358;2.122;2022-10-17T05:07:51;5.30;;;2.00;;
75454;SDS011;64035;48.358;2.122;2022-10-17T05:08:52;5.65;;;2.30;;
75454;SDS011;64035;48.358;2.122;2022-10-17T05:09:52;5.55;;;2.03;;
75454;SDS011;64035;48.358;2.122;2022-10-17T05:10:53;7.43;;;2.63;;
75454;SDS011;64035;48.358;2.122;2022-10-17T05:11:53;6.85;;;2.33;;
75454;SDS011;64035;48.358;2.122;2022-10-17T05:12:53;6.93;;;2.55;;
75454;SDS011;64035;48.358;2.122;2022-10-17T05:13:55;8.85;;;2.75;;
75454;SDS011;64035;48.358;2.122;2022-10-17T05:14:57;6.90;;;2.65;;
75454;SDS011;64035;48.358;2.122;2022-10-17T05:16:00;7.47;;;2.67;;
75454;SDS011;64035;48.358;2.122;2022-10-17T05:17:00;8.50;;;3.17;;
75454;SDS011;64035;48.358;2.122;2022-10-17T05:18:01;8.25;;;2.97;;
75454;SDS011;64035;48.358;2.122;2022-10-17T05:19:02;8.30;;;3.63;;
75454;SDS011;64035;48.358;2.122;2022-10-17T05:20:03;8.20;;;3.20;;
75454;SDS011;64035;48.358;2.122;2022-10-17T05:21:04;9.32;;;3.15;;
75454;SDS011;64035;48.358;2.122;2022-10-17T05:22:04;9.05;;;3.30;;
75454;SDS011;64035;48.358;2.122;2022-10-17T05:23:04;7.07;;;2.63;;
75454;SDS011;64035;48.358;2.122;2022-10-17T05:24:05;7.90;;;3.13;;
75454;SDS011;64035;48.358;2.122;2022-10-17T05:25:07;9.20;;;3.40;;
75454;SDS011;64035;48.358;2.122;2022-10-17T05:26:07;8.70;;;3.00;;
75454;SDS011;64035;48.358;2.122;2022-10-17T05:27:08;8.23;;;3.25;;
75454;SDS011;64035;48.358;2.122;2022-10-17T05:28:08;7.57;;;2.90;;
75454;SDS011;64035;48.358;2.122;2022-10-17T05:29:09;7.35;;;2.65;;
75454;SDS011;64035;48.358;2.122;2022-10-17T05:30:09;6.55;;;2.78;;
75454;SDS011;64035;48.358;2.122;2022-10-17T05:31:10;7.15;;;2.63;;
75454;SDS011;64035;48.358;2.122;2022-10-17T05:32:11;7.53;;;2.63;;
75454;SDS011;64035;48.358;2.122;2022-10-17T05:33:11;7.00;;;3.00;;
75454;SDS011;64035;48.358;2.122;2022-10-17T05:34:11;8.80;;;3.03;;
75454;SDS011;64035;48.358;2.122;2022-10-17T05:35:12;7.57;;;3.00;;
75454;SDS011;64035;48.358;2.122;2022-10-17T05:36:13;8.05;;;3.10;;
75454;SDS011;64035;48.358;2.122;2022-10-17T05:37:13;6.38;;;2.55;;
75454;SDS011;64035;48.358;2.122;2022-10-17T05:38:13;7.88;;;2.97;;
75454;SDS011;64035;48.358;2.122;2022-10-17T05:39:14;6.57;;;2.65;;
75454;SDS011;64035;48.358;2.122;2022-10-17T05:40:18;7.03;;;2.70;;
75454;SDS011;64035;48.358;2.122;2022-10-17T05:41:19;9.55;;;3.35;;
75454;SDS011;64035;48.358;2.122;2022-10-17T05:42:19;7.00;;;2.92;;
75454;SDS011;64035;48.358;2.122;2022-10-17T05:43:20;8.48;;;2.65;;
75454;SDS011;64035;48.358;2.122;2022-10-17T05:44:20;7.05;;;2.63;;
75454;SDS011;64035;48.358;2.122;2022-10-17T05:45:21;7.07;;;2.92;;
75454;SDS011;64035;48.358;2.122;2022-10-17T05:46:21;7.10;;;2.60;;
75454;SDS011;64035;48.358;2.122;2022-10-17T05:47:23;8.88;;;2.80;;
75454;SDS011;64035;48.358;2.122;2022-10-17T05:48:24;10.00;;;2.65;;
75454;SDS011;64035;48.358;2.122;2022-10-17T05:49:24;8.52;;;2.80;;
75454;SDS011;64035;48.358;2.122;2022-10-17T05:50:24;6.97;;;2.42;;
75454;SDS011;64035;48.358;2.122;2022-10-17T05:51:25;5.38;;;2.20;;
75454;SDS011;64035;48.358;2.122;2022-10-17T05:52:25;7.85;;;2.90;;
75454;SDS011;64035;48.358;2.122;2022-10-17T05:53:28;6.65;;;2.55;;
75454;SDS011;64035;48.358;2.122;2022-10-17T05:54:29;7.97;;;2.67;;
75454;SDS011;64035;48.358;2.122;2022-10-17T05:55:29;4.65;;;2.15;;
75454;SDS011;64035;48.358;2.122;2022-10-17T05:56:30;5.80;;;2.35;;
75454;SDS011;64035;48.358;2.122;2022-10-17T05:57:30;5.85;;;2.25;;
75454;SDS011;64035;48.358;2.122;2022-10-17T05:58:31;6.55;;;2.42;;
75454;SDS011;64035;48.358;2.122;2022-10-17T05:59:33;6.55;;;2.47;;
75454;SDS011;64035;48.358;2.122;2022-10-17T06:00:33;6.13;;;2.20;;
75454;SDS011;64035;48.358;2.122;2022-10-17T06:01:34;5.03;;;2.50;;
75454;SDS011;64035;48.358;2.122;2022-10-17T06:02:34;11.45;;;2.70;;
75454;SDS011;64035;48.358;2.122;2022-10-17T06:03:34;8.13;;;2.85;;
75454;SDS011;64035;48.358;2.122;2022-10-17T06:04:35;6.80;;;2.80;;
75454;SDS011;64035;48.358;2.122;2022-10-17T06:05:36;8.13;;;2.42;;
75454;SDS011;64035;48.358;2.122;2022-10-17T06:06:37;5.43;;;2.40;;
75454;SDS011;64035;48.358;2.122;2022-10-17T06:07:39;7.03;;;2.40;;
75454;SDS011;64035;48.358;2.122;2022-10-17T06:08:40;6.68;;;2.55;;
75454;SDS011;64035;48.358;2.122;2022-10-17T06:09:41;7.00;;;2.35;;
75454;SDS011;64035;48.358;2.122;2022-10-17T06:10:41;7.82;;;2.47;;
75454;SDS011;64035;48.358;2.122;2022-10-17T06:11:41;6.78;;;2.47;;
75454;SDS011;64035;48.358;2.122;2022-10-17T06:12:42;7.25;;;2.40;;
75454;SDS011;64035;48.358;2.122;2022-10-17T06:13:43;6.75;;;2.47;;
75454;SDS011;64035;48.358;2.122;2022-10-17T06:14:43;7.60;;;3.00;;
75454;SDS011;64035;48.358;2.122;2022-10-17T06:15:44;6.70;;;2.35;;
75454;SDS011;64035;48.358;2.122;2022-10-17T06:16:44;7.05;;;2.55;;
75454;SDS011;64035;48.358;2.122;2022-10-17T06:17:45;8.63;;;2.90;;
75454;SDS011;64035;48.358;2.122;2022-10-17T06:18:47;6.13;;;2.83;;
75454;SDS011;64035;48.358;2.122;2022-10-17T06:19:50;6.00;;;2.60;;
75454;SDS011;64035;48.358;2.122;2022-10-17T06:20:51;5.75;;;2.72;;
75454;SDS011;64035;48.358;2.122;2022-10-17T06:21:51;7.15;;;2.85;;
75454;SDS011;64035;48.358;2.122;2022-10-17T06:22:52;6.50;;;2.50;;
75454;SDS011;64035;48.358;2.122;2022-10-17T06:23:52;6.93;;;2.83;;
75454;SDS011;64035;48.358;2.122;2022-10-17T06:24:52;8.20;;;2.90;;
75454;SDS011;64035;48.358;2.122;2022-10-17T06:25:56;7.22;;;2.75;;
75454;SDS011;64035;48.358;2.122;2022-10-17T06:26:57;8.38;;;2.70;;
75454;SDS011;64035;48.358;2.122;2022-10-17T06:27:58;7.72;;;2.75;;
75454;SDS011;64035;48.358;2.122;2022-10-17T06:28:59;7.57;;;3.03;;
75454;SDS011;64035;48.358;2.122;2022-10-17T06:29:59;6.88;;;2.45;;
75454;SDS011;64035;48.358;2.122;2022-10-17T06:31:03;7.07;;;2.55;;
75454;SDS011;64035;48.358;2.122;2022-10-17T06:32:13;7.30;;;2.35;;
75454;SDS011;64035;48.358;2.122;2022-10-17T06:33:14;7.65;;;2.90;;
75454;SDS011;64035;48.358;2.122;2022-10-17T06:34:15;6.78;;;2.58;;
75454;SDS011;64035;48.358;2.122;2022-10-17T06:35:16;6.45;;;2.50;;
75454;SDS011;64035;48.358;2.122;2022-10-17T06:36:16;5.68;;;2.45;;
75454;SDS011;64035;48.358;2.122;2022-10-17T06:37:16;8.90;;;2.25;;
75454;SDS011;64035;48.358;2.122;2022-10-17T06:38:17;8.27;;;2.67;;
75454;SDS011;64035;48.358;2.122;2022-10-17T06:39:18;8.05;;;2.92;;
75454;SDS011;64035;48.358;2.122;2022-10-17T06:40:18;7.32;;;2.78;;
75454;SDS011;64035;48.358;2.122;2022-10-17T06:41:18;5.63;;;2.10;;
75454;SDS011;64035;48.358;2.122;2022-10-17T06:42:19;7.93;;;2.53;;
75454;SDS011;64035;48.358;2.122;2022-10-17T06:43:19;5.65;;;2.10;;
75454;SDS011;64035;48.358;2.122;2022-10-17T06:44:20;7.57;;;2.25;;
75454;SDS011;64035;48.358;2.122;2022-10-17T06:45:21;6.05;;;2.50;;
75454;SDS011;64035;48.358;2.122;2022-10-17T06:46:22;5.97;;;2.47;;
75454;SDS011;64035;48.358;2.122;2022-10-17T06:47:25;8.10;;;2.78;;